Alaska, Minnesota
Current Conditions -  °F | °C
As of 5:33 PM on Wednesday 22 Oct 2014 (Local Time) from KBJI Reporting Station
Overcast Overcast  
Wind Chill: 14°   Ceiling: 3800
Heat Index: 14°   Visibility: 10mi
Dew Point:   Wind: 10mph
Humidity: 60%   Direction: 170°S
Pressure: 29.9"   Gusts: NA
Location:  47.7369°N, 94.9947°W
Report Text: KBJI 222233Z AUTO 17009KT 10SM OVC038 14/07 A2990 RMK AO2 T01420065
Loading
Personal Weather Stations






























Interactive Weather Map
Tropical Storm Tracking
New forecast layout! Learn more

10-Day Weather Forecast

Advertisements
Track Severe Weather on mobile